createdAt,value
2022-11-02T00:00:19.595Z,98143.38
2022-11-02T00:02:46.099Z,98139.75
2022-11-02T00:05:13.719Z,98146.16
2022-11-02T00:07:41.155Z,98147.31
2022-11-02T00:10:08.379Z,98154.38
2022-11-02T00:12:34.982Z,98141.91
2022-11-02T00:15:01.497Z,98145.97
2022-11-02T00:17:28.700Z,98148.72
2022-11-02T00:19:55.185Z,98157.84
2022-11-02T00:22:22.564Z,98148.72
2022-11-02T00:24:48.983Z,98162.06
2022-11-02T00:27:15.423Z,98158.50
2022-11-02T00:29:41.960Z,98163.06
2022-11-02T00:32:08.403Z,98165.56
2022-11-02T00:34:34.821Z,98161.66
2022-11-02T00:37:01.275Z,98167.78
2022-11-02T00:39:27.757Z,98165.78
2022-11-02T00:41:54.219Z,98167.81
2022-11-02T00:44:20.676Z,98165.56
2022-11-02T00:46:47.118Z,98165.56
2022-11-02T00:49:13.598Z,98159.22
2022-11-02T00:51:40.499Z,98164.56
2022-11-02T00:54:06.999Z,98160.59
2022-11-02T00:56:33.847Z,98161.28
2022-11-02T00:59:03.809Z,98156.16
2022-11-02T01:01:31.698Z,98165.19
2022-11-02T01:03:59.242Z,98160.66
2022-11-02T01:06:25.997Z,98157.50
2022-11-02T01:08:53.251Z,98156.22
2022-11-02T01:11:21.409Z,98163.34
2022-11-02T01:13:49.821Z,98162.47
2022-11-02T01:16:18.168Z,98158.06
2022-11-02T01:18:44.600Z,98157.31
2022-11-02T01:21:12.100Z,98157.22
2022-11-02T01:23:39.218Z,98164.16
2022-11-02T01:26:06.772Z,98158.28
2022-11-02T01:28:33.304Z,98155.41
2022-11-02T01:31:00.042Z,98157.66
2022-11-02T01:33:26.925Z,98160.00
2022-11-02T01:35:54.553Z,98165.75
2022-11-02T01:38:23.128Z,98161.03
2022-11-02T01:40:49.792Z,98156.94
2022-11-02T01:43:22.271Z,98157.84
2022-11-02T01:45:51.449Z,98155.03
2022-11-02T01:48:18.889Z,98155.59
2022-11-02T01:50:46.248Z,98155.41
2022-11-02T01:53:12.758Z,98148.50
2022-11-02T01:55:40.089Z,98155.72
2022-11-02T01:58:09.988Z,98145.31
2022-11-02T02:00:38.547Z,98150.63
2022-11-02T02:03:13.711Z,98145.84
2022-11-02T02:05:41.937Z,98141.50
2022-11-02T02:08:09.982Z,98143.16
2022-11-02T02:10:36.484Z,98139.91
2022-11-02T02:13:06.100Z,98140.78
2022-11-02T02:15:41.344Z,98131.66
2022-11-02T02:18:12.948Z,98145.34
2022-11-02T02:20:39.492Z,98132.28
2022-11-02T02:23:24.215Z,98140.28
2022-11-02T02:26:08.183Z,98133.44
2022-11-02T02:28:34.723Z,98131.00
2022-11-02T02:31:20.349Z,98133.13
2022-11-02T02:33:46.783Z,98125.81
2022-11-02T02:36:13.224Z,98130.78
2022-11-02T02:38:48.585Z,98141.63
2022-11-02T02:41:38.537Z,98135.66
2022-11-02T02:44:06.709Z,98142.41
2022-11-02T02:46:39.192Z,98150.47
2022-11-02T02:49:10.029Z,98146.69
2022-11-02T02:51:37.914Z,98155.19
2022-11-02T02:54:26.019Z,98158.91
2022-11-02T02:56:57.498Z,98163.69
2022-11-02T02:59:29.693Z,98158.28
2022-11-02T03:01:58.876Z,98153.25
2022-11-02T03:04:25.738Z,98149.16
2022-11-02T03:06:54.659Z,98146.06
2022-11-02T03:09:24.435Z,98152.72
2022-11-02T03:11:59.607Z,98147.97
2022-11-02T03:14:37.112Z,98146.66
2022-11-02T03:17:20.461Z,98132.50
2022-11-02T03:20:09.205Z,98145.00
2022-11-02T03:23:06.448Z,98147.06
2022-11-02T03:25:52.765Z,98140.44
2022-11-02T03:28:19.778Z,98149.09
2022-11-02T03:30:54.985Z,98146.59
2022-11-02T03:33:30.579Z,98146.53
2022-11-02T03:36:05.540Z,98147.75
2022-11-02T03:38:38.598Z,98150.63
2022-11-02T03:41:06.235Z,98161.28
2022-11-02T03:43:34.983Z,98156.66
2022-11-02T03:46:03.031Z,98172.84
2022-11-02T03:48:32.382Z,98163.19
2022-11-02T03:51:02.249Z,98168.81
2022-11-02T03:53:40.373Z,98171.22
2022-11-02T03:56:08.703Z,98174.38
2022-11-02T03:58:37.632Z,98184.88
2022-11-02T04:01:08.277Z,98182.09
2022-11-02T04:03:39.528Z,98178.38
2022-11-02T04:06:06.508Z,98184.13
2022-11-02T04:08:37.496Z,98186.91
2022-11-02T04:11:25.722Z,98184.88
2022-11-02T04:14:13.841Z,98183.66
2022-11-02T04:16:42.448Z,98181.03
2022-11-02T04:19:28.029Z,98185.19
2022-11-02T04:22:17.824Z,98181.31
2022-11-02T04:25:06.082Z,98188.28
2022-11-02T04:27:33.519Z,98188.91
2022-11-02T04:30:00.617Z,98191.16
2022-11-02T04:32:48.597Z,98195.69
2022-11-02T04:35:17.433Z,98202.34
2022-11-02T04:38:04.756Z,98200.09
2022-11-02T04:40:35.452Z,98202.66
2022-11-02T04:43:04.476Z,98199.41
2022-11-02T04:45:33.132Z,98199.88
2022-11-02T04:48:09.855Z,98200.97
2022-11-02T04:50:37.606Z,98201.59
2022-11-02T04:53:07.038Z,98190.13
2022-11-02T04:55:34.701Z,98205.41
2022-11-02T04:58:01.354Z,98200.56
2022-11-02T05:00:28.024Z,98199.56
2022-11-02T05:02:54.707Z,98194.84
2022-11-02T05:05:22.966Z,98197.50
2022-11-02T05:07:51.442Z,98191.38
2022-11-02T05:10:18.374Z,98194.97
2022-11-02T05:12:46.842Z,98189.34
2022-11-02T05:15:13.932Z,98200.00
2022-11-02T05:17:40.512Z,98204.28
2022-11-02T05:20:08.781Z,98205.00
2022-11-02T05:22:35.283Z,98203.59
2022-11-02T05:25:01.701Z,98212.59
2022-11-02T05:27:29.416Z,98211.53
2022-11-02T05:29:56.535Z,98209.09
2022-11-02T05:32:23.085Z,98207.63
2022-11-02T05:34:49.759Z,98202.66
2022-11-02T05:37:16.269Z,98203.91
2022-11-02T05:39:45.112Z,98203.59
2022-11-02T05:42:14.697Z,98215.25
2022-11-02T05:44:41.245Z,98216.00
2022-11-02T05:47:08.055Z,98223.69
2022-11-02T05:49:34.904Z,98223.50
2022-11-02T05:52:01.460Z,98223.03
2022-11-02T05:54:27.935Z,98227.56
2022-11-02T05:56:54.433Z,98232.88
2022-11-02T05:59:20.900Z,98228.38
2022-11-02T06:01:47.503Z,98234.50
2022-11-02T06:04:14.138Z,98239.59
2022-11-02T06:06:40.673Z,98245.28
2022-11-02T06:09:07.548Z,98243.91
2022-11-02T06:11:34.060Z,98244.59
2022-11-02T06:14:00.563Z,98238.41
2022-11-02T06:16:27.016Z,98252.22
2022-11-02T06:18:53.432Z,98252.28
2022-11-02T06:21:19.940Z,98254.53
2022-11-02T06:23:47.008Z,98253.63
2022-11-02T06:26:13.469Z,98253.47
2022-11-02T06:28:39.927Z,98263.28
2022-11-02T06:31:07.069Z,98255.66
2022-11-02T06:33:33.522Z,98263.28
2022-11-02T06:35:59.989Z,98264.63
2022-11-02T06:38:26.411Z,98275.53
2022-11-02T06:40:57.295Z,98272.69
2022-11-02T06:43:24.558Z,98276.34
2022-11-02T06:45:53.923Z,98275.81
2022-11-02T06:48:20.390Z,98286.59
2022-11-02T06:50:46.895Z,98286.88
2022-11-02T06:53:13.372Z,98284.13
2022-11-02T06:55:39.921Z,98296.22
2022-11-02T06:58:06.474Z,98290.75
2022-11-02T07:00:33.067Z,98288.44
2022-11-02T07:03:00.289Z,98289.53
2022-11-02T07:05:26.836Z,98286.09
2022-11-02T07:07:53.577Z,98289.94
2022-11-02T07:10:20.009Z,98289.22
2022-11-02T07:12:46.499Z,98286.28
2022-11-02T07:15:13.761Z,98281.19
2022-11-02T07:17:40.864Z,98277.72
2022-11-02T07:20:10.439Z,98279.81
2022-11-02T07:22:37.197Z,98279.75
2022-11-02T07:25:03.824Z,98285.53
2022-11-02T07:27:30.232Z,98287.41
2022-11-02T07:29:58.179Z,98283.66
2022-11-02T07:32:25.697Z,98290.16
2022-11-02T07:34:52.219Z,98284.56
2022-11-02T07:37:18.697Z,98290.41
2022-11-02T07:39:45.169Z,98284.84
2022-11-02T07:42:11.601Z,98294.25
2022-11-02T07:44:41.720Z,98286.69
2022-11-02T07:47:08.135Z,98285.69
2022-11-02T07:49:34.576Z,98284.97
2022-11-02T07:52:01.022Z,98281.56
2022-11-02T07:54:27.502Z,98284.03
2022-11-02T07:56:53.985Z,98280.84
2022-11-02T07:59:20.396Z,98287.34
2022-11-02T08:01:46.967Z,98284.13
2022-11-02T08:04:13.583Z,98289.94
2022-11-02T08:06:40.137Z,98288.38
2022-11-02T08:09:06.601Z,98285.00
2022-11-02T08:11:33.043Z,98280.69
2022-11-02T08:13:59.480Z,98281.13
2022-11-02T08:16:25.985Z,98282.25
2022-11-02T08:18:52.476Z,98284.25
2022-11-02T08:21:18.949Z,98284.44
2022-11-02T08:23:45.626Z,98279.31
2022-11-02T08:26:12.286Z,98275.16
2022-11-02T08:28:40.367Z,98282.94
2022-11-02T08:31:07.689Z,98283.97
2022-11-02T08:33:34.162Z,98286.75
2022-11-02T08:36:04.784Z,98284.91
2022-11-02T08:38:31.563Z,98288.66
2022-11-02T08:40:58.092Z,98291.97
2022-11-02T08:43:24.585Z,98293.38
2022-11-02T08:48:37.523Z,98289.53
2022-11-02T08:51:05.626Z,98292.16
2022-11-02T08:53:32.128Z,98290.75
2022-11-02T08:55:59.417Z,98290.72
2022-11-02T08:58:26.016Z,98288.06
2022-11-02T09:00:53.107Z,98289.91
2022-11-02T09:03:26.146Z,98284.72
2022-11-02T09:05:56.988Z,98281.25
2022-11-02T09:10:58.002Z,98282.47
2022-11-02T09:13:27.243Z,98286.22
2022-11-02T09:15:55.748Z,98279.28
2022-11-02T09:18:22.513Z,98293.28
2022-11-02T09:20:49.819Z,98290.94
2022-11-02T09:23:17.130Z,98295.69
2022-11-02T09:25:44.134Z,98287.72
2022-11-02T09:28:11.112Z,98295.84
2022-11-02T09:30:37.711Z,98298.59
2022-11-02T09:33:05.753Z,98286.13
2022-11-02T09:35:34.311Z,98300.69
2022-11-02T09:38:01.089Z,98291.97
2022-11-02T09:40:31.689Z,98301.59
2022-11-02T09:43:04.433Z,98291.78
2022-11-02T09:45:34.216Z,98279.44
2022-11-02T09:48:26.775Z,98285.81
2022-11-02T09:50:57.811Z,98289.00
2022-11-02T09:53:47.778Z,98286.09
2022-11-02T09:56:16.664Z,98280.25
2022-11-02T09:58:44.415Z,98280.97
2022-11-02T10:01:26.407Z,98290.88
2022-11-02T10:04:14.149Z,98279.84
2022-11-02T10:06:44.671Z,98275.94
2022-11-02T10:09:26.066Z,98277.94
2022-11-02T10:11:57.515Z,98282.31
2022-11-02T10:14:29.708Z,98275.00
2022-11-02T10:17:04.671Z,98270.47
2022-11-02T10:19:34.783Z,98277.47
2022-11-02T10:22:01.404Z,98267.59
2022-11-02T10:24:39.980Z,98278.38
2022-11-02T10:27:14.452Z,98265.56
2022-11-02T10:29:59.817Z,98268.34
2022-11-02T10:32:26.374Z,98263.25
2022-11-02T10:34:59.086Z,98264.53
2022-11-02T10:37:58.668Z,98261.59
2022-11-02T10:40:28.267Z,98268.72
2022-11-02T10:43:12.983Z,98260.81
2022-11-02T10:45:46.331Z,98253.50
2022-11-02T10:48:18.821Z,98249.06
2022-11-02T10:50:54.269Z,98245.28
2022-11-02T10:53:40.700Z,98244.31
2022-11-02T10:56:07.987Z,98239.38
2022-11-02T10:58:36.880Z,98231.84
2022-11-02T11:01:07.814Z,98239.72
2022-11-02T11:03:34.631Z,98236.97
2022-11-02T11:06:03.339Z,98232.22
2022-11-02T11:08:35.717Z,98230.72
2022-11-02T11:11:17.849Z,98234.41
2022-11-02T11:16:35.348Z,98228.38
2022-11-02T11:21:51.615Z,98221.63
2022-11-02T11:24:34.248Z,98227.13
2022-11-02T11:27:02.004Z,98222.44
2022-11-02T11:29:32.851Z,98223.75
2022-11-02T11:31:59.988Z,98213.53
2022-11-02T11:34:28.245Z,98208.53
2022-11-02T11:37:03.991Z,98213.94
2022-11-02T11:39:31.871Z,98203.75
2022-11-02T11:41:59.136Z,98210.38
2022-11-02T11:44:25.764Z,98210.09
2022-11-02T11:46:54.297Z,98201.63
2022-11-02T11:52:27.022Z,98195.72
2022-11-02T11:55:01.655Z,98199.94
2022-11-02T11:57:30.518Z,98197.75
2022-11-02T11:59:59.825Z,98198.69
2022-11-02T12:02:31.006Z,98193.66
2022-11-02T12:05:02.461Z,98181.69
2022-11-02T12:07:56.016Z,98187.41
2022-11-02T12:10:28.406Z,98194.38
2022-11-02T12:12:54.908Z,98188.00
2022-11-02T12:15:27.688Z,98185.69
2022-11-02T12:17:54.098Z,98186.66
2022-11-02T12:20:39.843Z,98178.59
2022-11-02T12:23:06.568Z,98179.41
2022-11-02T12:25:44.496Z,98173.44
2022-11-02T12:28:14.276Z,98176.38
2022-11-02T12:31:02.478Z,98168.88
2022-11-02T12:33:39.972Z,98171.41
2022-11-02T12:36:06.608Z,98160.81
2022-11-02T12:38:38.912Z,98153.44
2022-11-02T12:41:10.924Z,98159.03
2022-11-02T12:43:37.325Z,98152.66
2022-11-02T12:46:19.229Z,98155.53
2022-11-02T12:49:00.327Z,98145.94
2022-11-02T12:51:32.932Z,98145.06
2022-11-02T12:54:02.952Z,98142.72
2022-11-02T12:56:40.309Z,98136.34
2022-11-02T12:59:10.195Z,98138.94
2022-11-02T13:01:44.101Z,98138.94
2022-11-02T13:04:10.888Z,98147.78
2022-11-02T13:06:40.885Z,98149.00
2022-11-02T13:09:10.738Z,98139.97
2022-11-02T13:11:43.340Z,98134.06
2022-11-02T13:14:15.574Z,98138.69
2022-11-02T13:16:46.340Z,98132.47
2022-11-02T13:19:16.121Z,98123.59
2022-11-02T13:21:45.644Z,98130.56
2022-11-02T13:24:15.862Z,98131.16
2022-11-02T13:26:43.180Z,98133.19
2022-11-02T13:29:15.654Z,98134.47
2022-11-02T13:31:45.622Z,98128.25
2022-11-02T13:34:14.662Z,98138.75
2022-11-02T13:36:42.068Z,98134.97
2022-11-02T13:39:22.449Z,98125.97
2022-11-02T13:41:51.680Z,98126.94
2022-11-02T13:44:43.620Z,98131.88
2022-11-02T13:47:16.100Z,98135.47
2022-11-02T13:49:44.772Z,98134.69
2022-11-02T13:52:15.893Z,98137.00
2022-11-02T13:54:52.515Z,98137.16
2022-11-02T13:57:45.268Z,98134.19
2022-11-02T14:00:22.700Z,98139.59
2022-11-02T14:02:51.897Z,98133.41
2022-11-02T14:05:28.442Z,98133.84
2022-11-02T14:07:59.220Z,98136.69
2022-11-02T14:10:25.751Z,98138.22
2022-11-02T14:12:52.242Z,98137.19
2022-11-02T14:15:18.661Z,98136.91
2022-11-02T14:18:11.497Z,98131.75
2022-11-02T14:20:42.832Z,98139.81
2022-11-02T14:23:09.242Z,98140.44
2022-11-02T14:25:55.959Z,98144.25
2022-11-02T14:28:30.089Z,98152.84
2022-11-02T14:30:56.608Z,98145.75
2022-11-02T14:33:26.241Z,98152.53
2022-11-02T14:35:57.936Z,98153.44
2022-11-02T14:38:33.328Z,98152.78
2022-11-02T14:41:07.967Z,98159.22
2022-11-02T14:43:37.410Z,98158.78
2022-11-02T14:46:16.162Z,98169.19
2022-11-02T14:48:44.564Z,98164.72
2022-11-02T14:51:21.841Z,98171.91
2022-11-02T14:53:50.089Z,98163.88
2022-11-02T14:56:16.568Z,98159.44
2022-11-02T14:58:49.412Z,98168.66
2022-11-02T15:01:16.777Z,98160.72
2022-11-02T15:03:43.433Z,98167.03
2022-11-02T15:06:19.095Z,98168.25
2022-11-02T15:08:55.941Z,98165.88
2022-11-02T15:11:41.201Z,98170.44
2022-11-02T15:14:26.503Z,98169.03
2022-11-02T15:16:54.144Z,98176.66
2022-11-02T15:19:41.078Z,98178.47
2022-11-02T15:22:26.479Z,98178.13
2022-11-02T15:24:54.248Z,98181.31
2022-11-02T15:27:21.634Z,98184.41
2022-11-02T15:29:48.162Z,98189.09
2022-11-02T15:32:22.420Z,98194.38
2022-11-02T15:34:50.802Z,98200.19
2022-11-02T15:37:20.263Z,98193.59
2022-11-02T15:39:50.813Z,98200.28
2022-11-02T15:42:37.908Z,98197.06
2022-11-02T15:45:20.055Z,98203.56
2022-11-02T15:48:01.486Z,98199.47
2022-11-02T15:50:34.896Z,98206.66
2022-11-02T15:56:00.876Z,98206.84
2022-11-02T15:58:46.211Z,98217.19
2022-11-02T16:01:26.038Z,98214.72
2022-11-02T16:04:02.010Z,98204.13
2022-11-02T16:06:34.777Z,98211.28
2022-11-02T16:09:02.088Z,98214.03
2022-11-02T16:11:28.849Z,98210.94
2022-11-02T16:14:14.957Z,98206.31
2022-11-02T16:16:48.333Z,98208.47
2022-11-02T16:19:18.771Z,98209.84
2022-11-02T16:21:45.252Z,98203.06
2022-11-02T16:24:11.938Z,98207.47
2022-11-02T16:26:38.759Z,98211.88
2022-11-02T16:29:07.224Z,98208.22
2022-11-02T16:31:33.916Z,98204.16
2022-11-02T16:34:03.415Z,98201.41
2022-11-02T16:36:31.345Z,98196.66
2022-11-02T16:38:57.747Z,98203.69
2022-11-02T16:41:28.176Z,98209.53
2022-11-02T16:43:55.778Z,98216.38
2022-11-02T16:46:29.726Z,98228.78
2022-11-02T16:49:05.303Z,98224.34
2022-11-02T16:51:31.779Z,98224.03
2022-11-02T16:54:16.817Z,98223.66
2022-11-02T16:56:47.372Z,98217.59
2022-11-02T16:59:14.329Z,98228.16
2022-11-02T17:01:41.516Z,98222.72
2022-11-02T17:04:14.253Z,98226.13
2022-11-02T17:06:43.971Z,98229.22
2022-11-02T17:09:22.069Z,98232.94
2022-11-02T17:11:49.705Z,98235.28
2022-11-02T17:14:18.461Z,98234.94
2022-11-02T17:16:59.957Z,98239.34
2022-11-02T17:19:41.452Z,98234.38
2022-11-02T17:22:28.996Z,98231.97
2022-11-02T17:25:19.678Z,98232.53
2022-11-02T17:27:46.507Z,98234.22
2022-11-02T17:30:31.839Z,98243.25
2022-11-02T17:32:58.619Z,98232.72
2022-11-02T17:35:27.456Z,98243.44
2022-11-02T17:37:54.328Z,98237.69
2022-11-02T17:40:21.817Z,98242.47
2022-11-02T17:43:00.862Z,98243.78
2022-11-02T17:45:28.543Z,98246.88
2022-11-02T17:47:56.016Z,98258.56
2022-11-02T17:50:23.099Z,98255.31
2022-11-02T17:52:50.673Z,98250.75
2022-11-02T17:55:18.760Z,98247.19
2022-11-02T17:57:45.284Z,98245.16
2022-11-02T18:00:12.265Z,98247.53
2022-11-02T18:02:40.166Z,98256.38
2022-11-02T18:05:26.927Z,98252.59
2022-11-02T18:07:54.168Z,98255.28
2022-11-02T18:10:21.767Z,98254.94
2022-11-02T18:12:48.341Z,98246.63
2022-11-02T18:15:16.299Z,98256.63
2022-11-02T18:17:42.938Z,98262.91
2022-11-02T18:20:10.573Z,98269.53
2022-11-02T18:22:37.301Z,98270.22
2022-11-02T18:25:04.643Z,98269.91
2022-11-02T18:27:31.134Z,98271.91
2022-11-02T18:29:57.868Z,98259.34
2022-11-02T18:32:24.483Z,98262.03
2022-11-02T18:34:50.961Z,98261.69
2022-11-02T18:37:17.501Z,98253.22
2022-11-02T18:39:43.973Z,98263.78
2022-11-02T18:42:10.400Z,98265.69
2022-11-02T18:44:36.839Z,98266.19
2022-11-02T18:47:04.552Z,98266.19
2022-11-02T18:49:30.989Z,98272.25
2022-11-02T18:51:57.417Z,98266.19
2022-11-02T18:54:23.857Z,98260.09
2022-11-02T18:56:50.277Z,98254.13
2022-11-02T18:59:16.821Z,98261.09
2022-11-02T19:01:43.442Z,98271.13
2022-11-02T19:04:16.025Z,98271.66
2022-11-02T19:07:02.461Z,98271.44
2022-11-02T19:09:31.509Z,98269.25
2022-11-02T19:12:01.153Z,98276.72
2022-11-02T19:14:33.298Z,98275.38
2022-11-02T19:17:00.040Z,98281.13
2022-11-02T19:19:26.450Z,98279.78
2022-11-02T19:21:53.381Z,98282.16
2022-11-02T19:24:21.073Z,98285.56
2022-11-02T19:26:47.528Z,98283.69
2022-11-02T19:29:13.963Z,98283.84
2022-11-02T19:31:40.559Z,98297.59
2022-11-02T19:34:07.235Z,98300.81
2022-11-02T19:36:33.815Z,98294.91
2022-11-02T19:39:03.136Z,98292.19
2022-11-02T19:41:30.529Z,98294.03
2022-11-02T19:43:57.752Z,98303.34
2022-11-02T19:46:24.936Z,98303.38
2022-11-02T19:48:51.457Z,98300.13
2022-11-02T19:51:22.411Z,98304.41
2022-11-02T19:53:50.304Z,98300.50
2022-11-02T19:56:17.461Z,98300.81
2022-11-02T19:58:45.235Z,98301.19
2022-11-02T20:01:13.402Z,98299.31
2022-11-02T20:03:40.655Z,98297.78
2022-11-02T20:06:08.376Z,98297.44
2022-11-02T20:08:34.817Z,98282.16
2022-11-02T20:11:01.984Z,98293.19
2022-11-02T20:13:28.483Z,98291.66
2022-11-02T20:15:57.965Z,98305.59
2022-11-02T20:18:24.834Z,98300.59
2022-11-02T20:20:52.485Z,98299.75
2022-11-02T20:23:19.892Z,98308.41
2022-11-02T20:25:49.166Z,98304.81
2022-11-02T20:28:15.633Z,98309.75
2022-11-02T20:30:42.659Z,98315.88
2022-11-02T20:33:09.471Z,98315.34
2022-11-02T20:35:36.563Z,98312.28
2022-11-02T20:38:03.356Z,98316.53
2022-11-02T20:40:32.162Z,98311.88
2022-11-02T20:42:58.886Z,98315.31
2022-11-02T20:45:25.529Z,98310.56
2022-11-02T20:47:51.997Z,98318.34
2022-11-02T20:50:20.557Z,98316.44
2022-11-02T20:52:52.991Z,98310.56
2022-11-02T20:55:19.442Z,98314.28
2022-11-02T20:57:47.110Z,98311.41
2022-11-02T21:00:14.121Z,98306.47
2022-11-02T21:02:40.604Z,98308.66
2022-11-02T21:05:07.210Z,98309.97
2022-11-02T21:07:33.642Z,98307.41
2022-11-02T21:10:00.076Z,98300.28
2022-11-02T21:12:45.066Z,98308.28
2022-11-02T21:15:11.617Z,98306.03
2022-11-02T21:17:38.117Z,98304.72
2022-11-02T21:20:35.057Z,98308.09
2022-11-02T21:22:51.457Z,98303.38
2022-11-02T21:25:18.477Z,98302.31
2022-11-02T21:27:44.950Z,98308.91
2022-11-02T21:30:11.497Z,98300.22
2022-11-02T21:32:37.949Z,98303.59
2022-11-02T21:35:04.582Z,98301.22
2022-11-02T21:37:31.024Z,98305.66
2022-11-02T21:39:57.435Z,98302.88
2022-11-02T21:42:23.873Z,98303.66
2022-11-02T21:44:50.280Z,98309.06
2022-11-02T21:47:16.740Z,98302.44
2022-11-02T21:49:43.214Z,98308.72
2022-11-02T21:52:09.749Z,98305.31
2022-11-02T21:54:36.254Z,98294.47
2022-11-02T21:57:02.687Z,98305.31
2022-11-02T21:59:29.152Z,98300.44
2022-11-02T22:01:55.923Z,98306.69
2022-11-02T22:04:25.444Z,98296.16
2022-11-02T22:06:52.382Z,98304.81
2022-11-02T22:09:18.923Z,98296.34
2022-11-02T22:11:45.447Z,98299.53
2022-11-02T22:14:12.116Z,98301.19
2022-11-02T22:16:39.774Z,98300.34
2022-11-02T22:19:13.240Z,98305.56
2022-11-02T22:21:41.179Z,98314.19
2022-11-02T22:24:07.940Z,98301.38
2022-11-02T22:26:35.233Z,98306.31
2022-11-02T22:29:02.304Z,98300.53
2022-11-02T22:31:29.806Z,98305.25
2022-11-02T22:33:57.147Z,98298.00
2022-11-02T22:36:24.838Z,98298.97
2022-11-02T22:38:53.158Z,98303.38
2022-11-02T22:41:21.257Z,98295.94
2022-11-02T22:43:48.497Z,98303.22
2022-11-02T22:46:15.276Z,98297.94
2022-11-02T22:48:42.010Z,98300.66
2022-11-02T22:51:08.671Z,98301.00
2022-11-02T22:53:35.128Z,98307.59
2022-11-02T22:56:03.196Z,98309.00
2022-11-02T22:58:30.572Z,98311.97
2022-11-02T23:00:57.401Z,98306.34
2022-11-02T23:03:23.948Z,98305.50
2022-11-02T23:05:50.424Z,98305.66
2022-11-02T23:08:16.914Z,98312.94
2022-11-02T23:11:02.228Z,98303.75
2022-11-02T23:13:28.740Z,98296.72
2022-11-02T23:16:21.065Z,98300.72
2022-11-02T23:19:27.085Z,98295.50
2022-11-02T23:22:20.982Z,98295.19
2022-11-02T23:25:07.224Z,98295.91
2022-11-02T23:27:34.704Z,98290.94
2022-11-02T23:30:19.958Z,98300.66
2022-11-02T23:32:46.444Z,98298.25
2022-11-02T23:35:31.492Z,98295.91
2022-11-02T23:38:04.828Z,98294.91
2022-11-02T23:40:31.833Z,98298.59
2022-11-02T23:42:58.368Z,98295.25
2022-11-02T23:45:24.920Z,98291.19
2022-11-02T23:47:57.301Z,98297.63
2022-11-02T23:50:43.591Z,98295.59
2022-11-02T23:53:29.914Z,98299.31
2022-11-02T23:56:15.452Z,98300.19
2022-11-02T23:58:42.207Z,98295.28
